sensor_id;sensor_type;location;lat;lon;timestamp;pressure;altitude;pressure_sealevel;temperature;humidity
67341;BME280;54227;45.198;5.732;2022-08-14T00:01:05;98564.69;;;29.67;37.92
67341;BME280;54227;45.198;5.732;2022-08-14T00:03:31;98573.16;;;29.67;37.49
67341;BME280;54227;45.198;5.732;2022-08-14T00:05:58;98562.75;;;29.64;37.79
67341;BME280;54227;45.198;5.732;2022-08-14T00:08:24;98569.53;;;29.66;37.74
67341;BME280;54227;45.198;5.732;2022-08-14T00:10:50;98559.94;;;29.64;37.69
67341;BME280;54227;45.198;5.732;2022-08-14T00:13:18;98557.47;;;29.66;38.02
67341;BME280;54227;45.198;5.732;2022-08-14T00:15:46;98553.41;;;29.67;37.79
67341;BME280;54227;45.198;5.732;2022-08-14T00:18:15;98544.28;;;29.63;37.72
67341;BME280;54227;45.198;5.732;2022-08-14T00:20:42;98542.16;;;29.67;37.97
67341;BME280;54227;45.198;5.732;2022-08-14T00:23:09;98537.28;;;29.67;37.84
67341;BME280;54227;45.198;5.732;2022-08-14T00:25:35;98526.13;;;29.64;38.11
67341;BME280;54227;45.198;5.732;2022-08-14T00:28:01;98538.53;;;29.66;38.10
67341;BME280;54227;45.198;5.732;2022-08-14T00:30:27;98538.53;;;29.66;37.67
67341;BME280;54227;45.198;5.732;2022-08-14T00:32:53;98540.56;;;29.66;37.87
67341;BME280;54227;45.198;5.732;2022-08-14T00:35:19;98528.50;;;29.65;37.71
67341;BME280;54227;45.198;5.732;2022-08-14T00:37:44;98529.31;;;29.66;37.67
67341;BME280;54227;45.198;5.732;2022-08-14T00:40:12;98526.13;;;29.64;38.01
67341;BME280;54227;45.198;5.732;2022-08-14T00:42:39;98521.63;;;29.66;38.08
67341;BME280;54227;45.198;5.732;2022-08-14T00:45:07;98511.59;;;29.65;37.72
67341;BME280;54227;45.198;5.732;2022-08-14T00:47:33;98513.97;;;29.67;38.05
67341;BME280;54227;45.198;5.732;2022-08-14T00:50:00;98507.53;;;29.66;37.97
67341;BME280;54227;45.198;5.732;2022-08-14T00:52:27;98505.50;;;29.67;37.75
67341;BME280;54227;45.198;5.732;2022-08-14T00:54:52;98506.75;;;29.66;38.09
67341;BME280;54227;45.198;5.732;2022-08-14T00:57:23;98511.13;;;29.67;37.91
67341;BME280;54227;45.198;5.732;2022-08-14T00:59:49;98505.50;;;29.67;37.78
67341;BME280;54227;45.198;5.732;2022-08-14T01:02:16;98494.34;;;29.63;38.02
67341;BME280;54227;45.198;5.732;2022-08-14T01:04:44;98497.03;;;29.67;37.66
67341;BME280;54227;45.198;5.732;2022-08-14T01:07:10;98490.63;;;29.66;37.69
67341;BME280;54227;45.198;5.732;2022-08-14T01:09:36;98491.41;;;29.67;37.72
67341;BME280;54227;45.198;5.732;2022-08-14T01:12:04;98496.25;;;29.66;37.75
67341;BME280;54227;45.198;5.732;2022-08-14T01:14:29;98487.81;;;29.66;38.01
67341;BME280;54227;45.198;5.732;2022-08-14T01:16:55;98491.41;;;29.67;37.98
67341;BME280;54227;45.198;5.732;2022-08-14T01:19:22;98485.78;;;29.67;37.79
67341;BME280;54227;45.198;5.732;2022-08-14T01:22:06;98490.94;;;29.68;37.89
67341;BME280;54227;45.198;5.732;2022-08-14T01:24:32;98487.34;;;29.68;37.98
67341;BME280;54227;45.198;5.732;2022-08-14T01:26:58;98480.13;;;29.67;37.85
67341;BME280;54227;45.198;5.732;2022-08-14T01:29:24;98483.75;;;29.67;37.70
67341;BME280;54227;45.198;5.732;2022-08-14T01:31:51;98483.28;;;29.69;37.99
67341;BME280;54227;45.198;5.732;2022-08-14T01:34:19;98479.66;;;29.68;37.90
67341;BME280;54227;45.198;5.732;2022-08-14T01:36:48;98482.03;;;29.70;38.03
67341;BME280;54227;45.198;5.732;2022-08-14T01:39:16;98473.56;;;29.70;38.00
67341;BME280;54227;45.198;5.732;2022-08-14T01:41:45;98468.72;;;29.70;38.05
67341;BME280;54227;45.198;5.732;2022-08-14T01:44:14;98473.09;;;29.71;37.96
67341;BME280;54227;45.198;5.732;2022-08-14T01:46:42;98462.28;;;29.70;37.62
67341;BME280;54227;45.198;5.732;2022-08-14T01:49:13;98462.19;;;29.73;37.62
67341;BME280;54227;45.198;5.732;2022-08-14T01:51:40;98452.16;;;29.72;37.83
67341;BME280;54227;45.198;5.732;2022-08-14T01:54:10;98454.97;;;29.72;38.04
67341;BME280;54227;45.198;5.732;2022-08-14T01:56:37;98442.88;;;29.72;37.84
67341;BME280;54227;45.198;5.732;2022-08-14T01:59:27;98442.09;;;29.71;37.49
67341;BME280;54227;45.198;5.732;2022-08-14T02:01:58;98439.63;;;29.73;37.83
67341;BME280;54227;45.198;5.732;2022-08-14T02:04:27;98442.44;;;29.73;37.75
67341;BME280;54227;45.198;5.732;2022-08-14T02:06:55;98446.06;;;29.74;37.78
67341;BME280;54227;45.198;5.732;2022-08-14T02:09:20;98448.88;;;29.74;38.01
67341;BME280;54227;45.198;5.732;2022-08-14T02:11:46;98440.41;;;29.74;37.75
67341;BME280;54227;45.198;5.732;2022-08-14T02:14:13;98441.97;;;29.75;37.94
67341;BME280;54227;45.198;5.732;2022-08-14T02:16:43;98441.97;;;29.75;37.67
67341;BME280;54227;45.198;5.732;2022-08-14T02:19:16;98441.19;;;29.74;37.68
67341;BME280;54227;45.198;5.732;2022-08-14T02:21:43;98442.88;;;29.72;37.95
67341;BME280;54227;45.198;5.732;2022-08-14T02:24:10;98434.78;;;29.74;37.85
67341;BME280;54227;45.198;5.732;2022-08-14T02:26:38;98439.16;;;29.75;37.73
67341;BME280;54227;45.198;5.732;2022-08-14T02:29:15;98430.72;;;29.75;37.93
67341;BME280;54227;45.198;5.732;2022-08-14T02:31:44;98438.69;;;29.76;37.96
67341;BME280;54227;45.198;5.732;2022-08-14T02:34:13;98437.91;;;29.76;37.50
67341;BME280;54227;45.198;5.732;2022-08-14T02:36:40;98436.34;;;29.75;37.56
67341;BME280;54227;45.198;5.732;2022-08-14T02:39:09;98437.13;;;29.75;37.89
67341;BME280;54227;45.198;5.732;2022-08-14T02:41:35;98440.72;;;29.76;38.00
67341;BME280;54227;45.198;5.732;2022-08-14T02:44:02;98440.25;;;29.77;37.98
67341;BME280;54227;45.198;5.732;2022-08-14T02:46:28;98438.69;;;29.76;37.63
67341;BME280;54227;45.198;5.732;2022-08-14T02:48:55;98449.19;;;29.76;37.55
67341;BME280;54227;45.198;5.732;2022-08-14T02:51:21;98447.94;;;29.77;37.75
67341;BME280;54227;45.198;5.732;2022-08-14T02:53:46;98449.19;;;29.76;37.65
67341;BME280;54227;45.198;5.732;2022-08-14T02:56:14;98443.56;;;29.76;37.94
67341;BME280;54227;45.198;5.732;2022-08-14T02:58:43;98447.94;;;29.77;37.99
67341;BME280;54227;45.198;5.732;2022-08-14T03:01:11;98445.13;;;29.77;37.49
67341;BME280;54227;45.198;5.732;2022-08-14T03:03:36;98436.66;;;29.77;37.65
67341;BME280;54227;45.198;5.732;2022-08-14T03:06:07;98438.22;;;29.78;37.57
67341;BME280;54227;45.198;5.732;2022-08-14T03:08:35;98439.47;;;29.77;37.91
67341;BME280;54227;45.198;5.732;2022-08-14T03:11:07;98433.06;;;29.76;37.54
67341;BME280;54227;45.198;5.732;2022-08-14T03:13:41;98425.38;;;29.77;37.70
67341;BME280;54227;45.198;5.732;2022-08-14T03:16:09;98420.53;;;29.77;37.43
67341;BME280;54227;45.198;5.732;2022-08-14T03:18:37;98412.84;;;29.78;37.92
67341;BME280;54227;45.198;5.732;2022-08-14T03:21:07;98406.78;;;29.79;37.66
67341;BME280;54227;45.198;5.732;2022-08-14T03:23:34;98411.59;;;29.79;37.84
67341;BME280;54227;45.198;5.732;2022-08-14T03:26:00;98406.78;;;29.79;37.89
67341;BME280;54227;45.198;5.732;2022-08-14T03:28:28;98405.97;;;29.79;37.89
67341;BME280;54227;45.198;5.732;2022-08-14T03:30:54;98407.22;;;29.78;37.85
67341;BME280;54227;45.198;5.732;2022-08-14T03:33:19;98405.19;;;29.78;37.54
67341;BME280;54227;45.198;5.732;2022-08-14T03:35:45;98398.75;;;29.78;37.71
67341;BME280;54227;45.198;5.732;2022-08-14T03:38:12;98399.13;;;29.80;37.82
67341;BME280;54227;45.198;5.732;2022-08-14T03:40:39;98397.50;;;29.79;37.71
67341;BME280;54227;45.198;5.732;2022-08-14T03:43:08;98380.59;;;29.79;37.72
67341;BME280;54227;45.198;5.732;2022-08-14T03:45:35;98383.41;;;29.79;37.48
67341;BME280;54227;45.198;5.732;2022-08-14T03:48:03;98394.69;;;29.79;37.77
67341;BME280;54227;45.198;5.732;2022-08-14T03:50:30;98394.69;;;29.79;37.68
67341;BME280;54227;45.198;5.732;2022-08-14T03:52:57;98411.59;;;29.79;37.92
67341;BME280;54227;45.198;5.732;2022-08-14T03:55:23;98405.97;;;29.79;37.95
67341;BME280;54227;45.198;5.732;2022-08-14T03:57:49;98398.31;;;29.79;37.52
67341;BME280;54227;45.198;5.732;2022-08-14T04:00:15;98387.50;;;29.78;37.52
67341;BME280;54227;45.198;5.732;2022-08-14T04:02:40;98385.47;;;29.78;37.77
67341;BME280;54227;45.198;5.732;2022-08-14T04:05:08;98384.22;;;29.79;37.45
67341;BME280;54227;45.198;5.732;2022-08-14T04:07:34;98386.25;;;29.79;37.97
67341;BME280;54227;45.198;5.732;2022-08-14T04:10:00;98383.41;;;29.79;37.82
67341;BME280;54227;45.198;5.732;2022-08-14T04:12:26;98376.56;;;29.80;37.42
67341;BME280;54227;45.198;5.732;2022-08-14T04:14:51;98369.66;;;29.81;37.53
67341;BME280;54227;45.198;5.732;2022-08-14T04:17:18;98374.53;;;29.80;37.82
67341;BME280;54227;45.198;5.732;2022-08-14T04:19:44;98370.91;;;29.80;37.76
67341;BME280;54227;45.198;5.732;2022-08-14T04:22:11;98387.84;;;29.80;37.79
67341;BME280;54227;45.198;5.732;2022-08-14T04:24:38;98377.78;;;29.79;37.78
67341;BME280;54227;45.198;5.732;2022-08-14T04:27:05;98387.06;;;29.79;37.80
67341;BME280;54227;45.198;5.732;2022-08-14T04:29:35;98393.13;;;29.78;37.94
67341;BME280;54227;45.198;5.732;2022-08-14T04:32:03;98400.34;;;29.79;37.68
67341;BME280;54227;45.198;5.732;2022-08-14T04:34:28;98392.69;;;29.79;37.53
67341;BME280;54227;45.198;5.732;2022-08-14T04:36:54;98388.63;;;29.80;37.47
67341;BME280;54227;45.198;5.732;2022-08-14T04:39:41;98382.19;;;29.80;37.49
67341;BME280;54227;45.198;5.732;2022-08-14T04:42:25;98376.56;;;29.80;37.45
67341;BME280;54227;45.198;5.732;2022-08-14T04:45:09;98385.03;;;29.80;37.69
67341;BME280;54227;45.198;5.732;2022-08-14T04:47:34;98380.59;;;29.79;37.61
67341;BME280;54227;45.198;5.732;2022-08-14T04:50:18;98379.38;;;29.80;37.47
67341;BME280;54227;45.198;5.732;2022-08-14T04:52:44;98384.22;;;29.79;37.77
67341;BME280;54227;45.198;5.732;2022-08-14T04:55:13;98383.88;;;29.77;37.88
67341;BME280;54227;45.198;5.732;2022-08-14T04:57:38;98407.22;;;29.78;37.79
67341;BME280;54227;45.198;5.732;2022-08-14T05:00:05;98418.84;;;29.80;37.72
67341;BME280;54227;45.198;5.732;2022-08-14T05:02:31;98425.69;;;29.79;37.54
67341;BME280;54227;45.198;5.732;2022-08-14T05:04:58;98432.94;;;29.80;37.76
67341;BME280;54227;45.198;5.732;2022-08-14T05:07:24;98444.22;;;29.80;37.94
67341;BME280;54227;45.198;5.732;2022-08-14T05:09:49;98457.06;;;29.81;37.90
67341;BME280;54227;45.198;5.732;2022-08-14T05:12:15;98455.50;;;29.80;37.50
67341;BME280;54227;45.198;5.732;2022-08-14T05:14:40;98467.56;;;29.80;37.61
67341;BME280;54227;45.198;5.732;2022-08-14T05:17:06;98465.97;;;29.79;37.82
67341;BME280;54227;45.198;5.732;2022-08-14T05:19:31;98462.69;;;29.81;37.84
67341;BME280;54227;45.198;5.732;2022-08-14T05:21:57;98455.50;;;29.80;37.57
67341;BME280;54227;45.198;5.732;2022-08-14T05:24:22;98445.00;;;29.80;37.76
67341;BME280;54227;45.198;5.732;2022-08-14T05:26:48;98444.22;;;29.80;37.85
67341;BME280;54227;45.198;5.732;2022-08-14T05:29:13;98435.28;;;29.81;37.78
67341;BME280;54227;45.198;5.732;2022-08-14T05:31:40;98434.50;;;29.81;37.85
67341;BME280;54227;45.198;5.732;2022-08-14T05:34:06;98437.78;;;29.79;37.72
67341;BME280;54227;45.198;5.732;2022-08-14T05:36:33;98452.22;;;29.81;37.52
67341;BME280;54227;45.198;5.732;2022-08-14T05:38:59;98454.25;;;29.81;37.67
67341;BME280;54227;45.198;5.732;2022-08-14T05:41:24;98455.81;;;29.82;37.81
67341;BME280;54227;45.198;5.732;2022-08-14T05:43:50;98440.16;;;29.81;37.54
67341;BME280;54227;45.198;5.732;2022-08-14T05:46:17;98450.16;;;29.82;37.91
67341;BME280;54227;45.198;5.732;2022-08-14T05:48:47;98452.69;;;29.80;37.46
67341;BME280;54227;45.198;5.732;2022-08-14T05:51:13;98456.28;;;29.80;37.72
67341;BME280;54227;45.198;5.732;2022-08-14T05:53:38;98459.88;;;29.81;37.65
67341;BME280;54227;45.198;5.732;2022-08-14T05:56:04;98476.78;;;29.81;37.89
67341;BME280;54227;45.198;5.732;2022-08-14T05:58:29;98484.78;;;29.82;37.53
67341;BME280;54227;45.198;5.732;2022-08-14T06:00:55;98491.69;;;29.81;37.70
67341;BME280;54227;45.198;5.732;2022-08-14T06:03:21;98510.16;;;29.82;37.97
67341;BME280;54227;45.198;5.732;2022-08-14T06:05:50;98521.44;;;29.82;37.98
67341;BME280;54227;45.198;5.732;2022-08-14T06:08:28;98546.91;;;29.79;38.05
67341;BME280;54227;45.198;5.732;2022-08-14T06:10:56;98542.53;;;29.78;37.60
67341;BME280;54227;45.198;5.732;2022-08-14T06:13:27;98562.94;;;29.82;37.73
67341;BME280;54227;45.198;5.732;2022-08-14T06:15:52;98578.28;;;29.81;37.59
67341;BME280;54227;45.198;5.732;2022-08-14T06:18:18;98585.50;;;29.82;37.76
67341;BME280;54227;45.198;5.732;2022-08-14T06:20:43;98592.38;;;29.81;38.03
67341;BME280;54227;45.198;5.732;2022-08-14T06:23:09;98617.75;;;29.81;37.75
67341;BME280;54227;45.198;5.732;2022-08-14T06:25:35;98629.03;;;29.81;37.90
67341;BME280;54227;45.198;5.732;2022-08-14T06:28:00;98648.75;;;29.81;37.63
67341;BME280;54227;45.198;5.732;2022-08-14T06:30:28;98668.03;;;29.82;38.18
67341;BME280;54227;45.198;5.732;2022-08-14T06:32:54;98689.47;;;29.80;38.09
67341;BME280;54227;45.198;5.732;2022-08-14T06:35:20;98705.16;;;29.81;37.66
67341;BME280;54227;45.198;5.732;2022-08-14T06:37:53;98721.28;;;29.80;38.06
67341;BME280;54227;45.198;5.732;2022-08-14T06:40:21;98738.97;;;29.81;38.15
67341;BME280;54227;45.198;5.732;2022-08-14T06:42:48;98752.28;;;29.80;37.63
67341;BME280;54227;45.198;5.732;2022-08-14T06:45:15;98768.75;;;29.82;37.85
67341;BME280;54227;45.198;5.732;2022-08-14T06:47:42;98770.00;;;29.81;38.09
67341;BME280;54227;45.198;5.732;2022-08-14T06:50:11;98751.50;;;29.80;37.90
67341;BME280;54227;45.198;5.732;2022-08-14T06:52:38;98738.97;;;29.81;38.03
67341;BME280;54227;45.198;5.732;2022-08-14T06:55:08;98715.63;;;29.80;37.64
67341;BME280;54227;45.198;5.732;2022-08-14T06:57:41;98691.50;;;29.79;37.77
67341;BME280;54227;45.198;5.732;2022-08-14T07:00:18;98716.41;;;29.81;37.90
67341;BME280;54227;45.198;5.732;2022-08-14T07:02:43;98707.97;;;29.81;37.65
67341;BME280;54227;45.198;5.732;2022-08-14T07:05:27;98726.13;;;29.80;37.61
67341;BME280;54227;45.198;5.732;2022-08-14T07:08:15;98740.22;;;29.80;38.09
67341;BME280;54227;45.198;5.732;2022-08-14T07:10:44;98771.25;;;29.80;37.87
67341;BME280;54227;45.198;5.732;2022-08-14T07:13:12;98770.44;;;29.79;38.02
67341;BME280;54227;45.198;5.732;2022-08-14T07:15:39;98761.53;;;29.81;38.05
67341;BME280;54227;45.198;5.732;2022-08-14T07:18:05;98768.75;;;29.82;38.03
67341;BME280;54227;45.198;5.732;2022-08-14T07:20:32;98768.41;;;29.80;37.70
67341;BME280;54227;45.198;5.732;2022-08-14T07:23:02;98764.34;;;29.81;38.13
67341;BME280;54227;45.198;5.732;2022-08-14T07:25:28;98779.22;;;29.81;38.13
67341;BME280;54227;45.198;5.732;2022-08-14T07:27:54;98798.97;;;29.81;37.79
67341;BME280;54227;45.198;5.732;2022-08-14T07:30:19;98805.06;;;29.80;37.80
67341;BME280;54227;45.198;5.732;2022-08-14T07:32:45;98795.38;;;29.81;38.11
67341;BME280;54227;45.198;5.732;2022-08-14T07:35:11;98787.69;;;29.81;37.88
67341;BME280;54227;45.198;5.732;2022-08-14T07:37:36;98782.50;;;29.80;38.13
67341;BME280;54227;45.198;5.732;2022-08-14T07:40:03;98783.31;;;29.80;37.83
67341;BME280;54227;45.198;5.732;2022-08-14T07:42:29;98779.69;;;29.80;38.02
67341;BME280;54227;45.198;5.732;2022-08-14T07:44:57;98766.38;;;29.80;37.97
67341;BME280;54227;45.198;5.732;2022-08-14T07:47:23;98751.50;;;29.80;37.80
67341;BME280;54227;45.198;5.732;2022-08-14T07:50:00;98772.44;;;29.79;37.93
67341;BME280;54227;45.198;5.732;2022-08-14T07:52:27;98778.44;;;29.81;37.83
67341;BME280;54227;45.198;5.732;2022-08-14T07:54:53;98792.53;;;29.81;37.65
67341;BME280;54227;45.198;5.732;2022-08-14T07:57:19;98807.09;;;29.79;38.00
67341;BME280;54227;45.198;5.732;2022-08-14T07:59:45;98819.94;;;29.80;38.23
67341;BME280;54227;45.198;5.732;2022-08-14T08:02:12;98839.69;;;29.80;37.98
67341;BME280;54227;45.198;5.732;2022-08-14T08:04:42;98835.38;;;29.76;37.76
67341;BME280;54227;45.198;5.732;2022-08-14T08:07:09;98826.84;;;29.79;38.18
67341;BME280;54227;45.198;5.732;2022-08-14T08:09:35;98821.97;;;29.80;37.97
67341;BME280;54227;45.198;5.732;2022-08-14T08:12:01;98835.28;;;29.79;38.10
67341;BME280;54227;45.198;5.732;2022-08-14T08:14:27;98873.16;;;29.78;38.14
67341;BME280;54227;45.198;5.732;2022-08-14T08:16:54;98888.84;;;29.79;38.00
67341;BME280;54227;45.198;5.732;2022-08-14T08:19:20;98884.00;;;29.80;37.69
67341;BME280;54227;45.198;5.732;2022-08-14T08:21:45;98877.13;;;29.81;38.11
67341;BME280;54227;45.198;5.732;2022-08-14T08:24:11;98879.94;;;29.81;38.15
67341;BME280;54227;45.198;5.732;2022-08-14T08:26:36;98879.16;;;29.80;38.24
67341;BME280;54227;45.198;5.732;2022-08-14T08:29:02;98863.81;;;29.81;37.86
67341;BME280;54227;45.198;5.732;2022-08-14T08:31:28;98872.72;;;29.80;38.24
67341;BME280;54227;45.198;5.732;2022-08-14T08:33:55;98882.75;;;29.81;38.23
67341;BME280;54227;45.198;5.732;2022-08-14T08:36:22;98887.63;;;29.80;37.93
67341;BME280;54227;45.198;5.732;2022-08-14T08:38:48;98906.19;;;29.78;38.23
67341;BME280;54227;45.198;5.732;2022-08-14T08:41:14;98915.03;;;29.80;37.82
67341;BME280;54227;45.198;5.732;2022-08-14T08:43:40;98919.41;;;29.81;37.99
67341;BME280;54227;45.198;5.732;2022-08-14T08:46:08;98922.22;;;29.81;37.97
67341;BME280;54227;45.198;5.732;2022-08-14T08:48:46;98934.75;;;29.80;38.08
67341;BME280;54227;45.198;5.732;2022-08-14T08:51:28;98956.84;;;29.81;38.21
67341;BME280;54227;45.198;5.732;2022-08-14T08:53:58;98953.25;;;29.81;38.14
67341;BME280;54227;45.198;5.732;2022-08-14T08:56:39;98958.09;;;29.80;38.13
67341;BME280;54227;45.198;5.732;2022-08-14T08:59:19;98964.97;;;29.79;37.98
67341;BME280;54227;45.198;5.732;2022-08-14T09:01:50;98958.19;;;29.77;37.88
67341;BME280;54227;45.198;5.732;2022-08-14T09:04:17;98960.91;;;29.80;38.28
67341;BME280;54227;45.198;5.732;2022-08-14T09:06:45;98960.13;;;29.80;38.23
67341;BME280;54227;45.198;5.732;2022-08-14T09:09:25;98956.53;;;29.79;37.98
67341;BME280;54227;45.198;5.732;2022-08-14T09:11:53;98951.66;;;29.80;38.37
67341;BME280;54227;45.198;5.732;2022-08-14T09:14:23;98944.44;;;29.79;37.91
67341;BME280;54227;45.198;5.732;2022-08-14T09:16:50;98950.06;;;29.79;38.31
67341;BME280;54227;45.198;5.732;2022-08-14T09:19:16;98950.06;;;29.79;37.83
67341;BME280;54227;45.198;5.732;2022-08-14T09:21:42;98945.34;;;29.76;37.99
67341;BME280;54227;45.198;5.732;2022-08-14T09:24:08;98979.06;;;29.79;38.28
67341;BME280;54227;45.198;5.732;2022-08-14T09:26:35;98996.78;;;29.80;38.23
67341;BME280;54227;45.198;5.732;2022-08-14T09:29:01;98990.34;;;29.79;37.97
67341;BME280;54227;45.198;5.732;2022-08-14T09:31:28;98990.34;;;29.79;38.17
67341;BME280;54227;45.198;5.732;2022-08-14T09:36:46;98995.19;;;29.79;38.31
67341;BME280;54227;45.198;5.732;2022-08-14T09:44:49;98972.63;;;29.79;38.18
67341;BME280;54227;45.198;5.732;2022-08-14T09:47:39;98980.75;;;29.77;38.22
67341;BME280;54227;45.198;5.732;2022-08-14T09:50:18;98993.59;;;29.78;38.00
67341;BME280;54227;45.198;5.732;2022-08-14T09:53:01;98988.75;;;29.78;38.40
67341;BME280;54227;45.198;5.732;2022-08-14T09:55:28;98964.16;;;29.79;38.21
67341;BME280;54227;45.198;5.732;2022-08-14T09:58:17;98939.69;;;29.76;38.07
67341;BME280;54227;45.198;5.732;2022-08-14T10:00:50;98937.22;;;29.78;38.00
67341;BME280;54227;45.198;5.732;2022-08-14T10:03:32;98926.84;;;29.75;38.18
67341;BME280;54227;45.198;5.732;2022-08-14T10:11:31;98925.72;;;29.72;38.44
67341;BME280;54227;45.198;5.732;2022-08-14T10:14:12;98913.09;;;29.77;38.10
67341;BME280;54227;45.198;5.732;2022-08-14T10:16:42;98910.25;;;29.77;38.11
67341;BME280;54227;45.198;5.732;2022-08-14T10:19:10;98901.00;;;29.76;38.48
67341;BME280;54227;45.198;5.732;2022-08-14T10:21:38;98906.66;;;29.76;38.01
67341;BME280;54227;45.198;5.732;2022-08-14T10:24:05;98895.50;;;29.73;38.35
67341;BME280;54227;45.198;5.732;2022-08-14T10:26:34;98898.97;;;29.77;38.19
67341;BME280;54227;45.198;5.732;2022-08-14T10:29:09;98880.50;;;29.76;38.04
67341;BME280;54227;45.198;5.732;2022-08-14T10:31:37;98867.97;;;29.77;38.27
67341;BME280;54227;45.198;5.732;2022-08-14T10:34:06;98882.06;;;29.77;38.46
67341;BME280;54227;45.198;5.732;2022-08-14T10:36:37;98889.75;;;29.76;38.15
67341;BME280;54227;45.198;5.732;2022-08-14T10:39:18;98896.16;;;29.77;38.40
67341;BME280;54227;45.198;5.732;2022-08-14T10:41:44;98880.50;;;29.76;38.32
67341;BME280;54227;45.198;5.732;2022-08-14T10:44:22;98854.34;;;29.75;38.01
67341;BME280;54227;45.198;5.732;2022-08-14T10:49:22;98820.84;;;29.77;38.30
67341;BME280;54227;45.198;5.732;2022-08-14T10:52:06;98822.88;;;29.77;38.11
67341;BME280;54227;45.198;5.732;2022-08-14T10:54:36;98817.22;;;29.77;38.18
67341;BME280;54227;45.198;5.732;2022-08-14T10:57:19;98813.63;;;29.76;38.42
67341;BME280;54227;45.198;5.732;2022-08-14T11:02:31;98801.56;;;29.76;38.21
67341;BME280;54227;45.198;5.732;2022-08-14T11:07:24;98795.47;;;29.77;38.56
67341;BME280;54227;45.198;5.732;2022-08-14T11:10:04;98789.81;;;29.77;38.50
67341;BME280;54227;45.198;5.732;2022-08-14T11:12:43;98780.59;;;29.77;38.50
67341;BME280;54227;45.198;5.732;2022-08-14T11:15:13;98774.47;;;29.78;38.16
67341;BME280;54227;45.198;5.732;2022-08-14T11:17:38;98766.47;;;29.77;38.34
67341;BME280;54227;45.198;5.732;2022-08-14T11:20:07;98772.13;;;29.77;38.48
67341;BME280;54227;45.198;5.732;2022-08-14T11:22:33;98751.94;;;29.78;38.38
67341;BME280;54227;45.198;5.732;2022-08-14T11:25:03;98738.63;;;29.79;38.14
67341;BME280;54227;45.198;5.732;2022-08-14T11:27:30;98734.22;;;29.78;38.09
67341;BME280;54227;45.198;5.732;2022-08-14T11:30:01;98746.28;;;29.78;38.33
67341;BME280;54227;45.198;5.732;2022-08-14T11:32:28;98755.53;;;29.79;38.39
67341;BME280;54227;45.198;5.732;2022-08-14T11:34:56;98753.53;;;29.79;38.14
67341;BME280;54227;45.198;5.732;2022-08-14T11:37:22;98753.19;;;29.77;38.47
67341;BME280;54227;45.198;5.732;2022-08-14T11:39:48;98744.25;;;29.79;38.56
67341;BME280;54227;45.198;5.732;2022-08-14T11:42:23;98752.72;;;29.79;38.53
67341;BME280;54227;45.198;5.732;2022-08-14T11:44:50;98736.72;;;29.76;38.18
67341;BME280;54227;45.198;5.732;2022-08-14T11:47:17;98726.13;;;29.80;38.58
67341;BME280;54227;45.198;5.732;2022-08-14T11:49:47;98712.81;;;29.80;38.50
67341;BME280;54227;45.198;5.732;2022-08-14T11:52:16;98706.41;;;29.80;38.30
67341;BME280;54227;45.198;5.732;2022-08-14T11:54:55;98697.16;;;29.79;38.54
67341;BME280;54227;45.198;5.732;2022-08-14T11:57:21;98676.16;;;29.80;38.23
67341;BME280;54227;45.198;5.732;2022-08-14T11:59:47;98662.84;;;29.81;38.49
67341;BME280;54227;45.198;5.732;2022-08-14T12:02:16;98670.53;;;29.80;38.19
67341;BME280;54227;45.198;5.732;2022-08-14T12:04:48;98656.06;;;29.78;38.16
67341;BME280;54227;45.198;5.732;2022-08-14T12:07:15;98645.16;;;29.80;38.33
67341;BME280;54227;45.198;5.732;2022-08-14T12:09:41;98643.91;;;29.81;38.19
67341;BME280;54227;45.198;5.732;2022-08-14T12:12:22;98642.34;;;29.80;38.60
67341;BME280;54227;45.198;5.732;2022-08-14T12:14:52;98637.50;;;29.81;38.65
67341;BME280;54227;45.198;5.732;2022-08-14T12:17:21;98627.78;;;29.82;38.61
67341;BME280;54227;45.198;5.732;2022-08-14T12:19:55;98612.13;;;29.81;38.20
67341;BME280;54227;45.198;5.732;2022-08-14T12:22:35;98602.88;;;29.80;38.13
67341;BME280;54227;45.198;5.732;2022-08-14T12:25:05;98604.44;;;29.81;38.46
67341;BME280;54227;45.198;5.732;2022-08-14T12:27:51;98598.03;;;29.81;38.24
67341;BME280;54227;45.198;5.732;2022-08-14T12:32:52;98566.66;;;29.79;38.48
67341;BME280;54227;45.198;5.732;2022-08-14T12:35:17;98575.94;;;29.79;38.16
67341;BME280;54227;45.198;5.732;2022-08-14T12:37:50;98586.75;;;29.81;38.60
67341;BME280;54227;45.198;5.732;2022-08-14T12:40:17;98589.88;;;29.83;38.21
67341;BME280;54227;45.198;5.732;2022-08-14T12:42:48;98581.09;;;29.81;38.28
67341;BME280;54227;45.198;5.732;2022-08-14T12:45:13;98570.16;;;29.83;38.27
67341;BME280;54227;45.198;5.732;2022-08-14T12:47:41;98565.75;;;29.82;38.37
67341;BME280;54227;45.198;5.732;2022-08-14T12:50:09;98568.91;;;29.84;38.63
67341;BME280;54227;45.198;5.732;2022-08-14T12:52:40;98565.75;;;29.82;38.17
67341;BME280;54227;45.198;5.732;2022-08-14T12:55:14;98566.53;;;29.82;38.57
67341;BME280;54227;45.198;5.732;2022-08-14T12:57:42;98556.19;;;29.79;38.43
67341;BME280;54227;45.198;5.732;2022-08-14T13:00:17;98554.47;;;29.82;38.31
67341;BME280;54227;45.198;5.732;2022-08-14T13:02:46;98556.84;;;29.83;38.61
67341;BME280;54227;45.198;5.732;2022-08-14T13:05:14;98548.84;;;29.82;38.16
67341;BME280;54227;45.198;5.732;2022-08-14T13:07:41;98540.72;;;29.84;38.46
67341;BME280;54227;45.198;5.732;2022-08-14T13:10:10;98539.13;;;29.83;38.46
67341;BME280;54227;45.198;5.732;2022-08-14T13:12:37;98537.09;;;29.83;38.44
67341;BME280;54227;45.198;5.732;2022-08-14T13:15:05;98519.41;;;29.83;38.50
67341;BME280;54227;45.198;5.732;2022-08-14T13:17:39;98522.22;;;29.83;38.29
67341;BME280;54227;45.198;5.732;2022-08-14T13:20:06;98520.97;;;29.84;38.36
67341;BME280;54227;45.198;5.732;2022-08-14T13:22:33;98508.91;;;29.83;38.18
67341;BME280;54227;45.198;5.732;2022-08-14T13:24:59;98503.28;;;29.83;38.28
67341;BME280;54227;45.198;5.732;2022-08-14T13:27:26;98491.22;;;29.83;38.66
67341;BME280;54227;45.198;5.732;2022-08-14T13:29:56;98487.59;;;29.82;38.66
67341;BME280;54227;45.198;5.732;2022-08-14T13:32:23;98488.38;;;29.83;38.65